sensor_id;sensor_type;location;lat;lon;timestamp;pressure;altitude;pressure_sealevel;temperature;humidity
15382;BME280;7789;51.364;12.358;2023-05-01T00:02:02;100795.22;;;9.38;61.33
15382;BME280;7789;51.364;12.358;2023-05-01T00:07:06;100789.59;;;9.32;61.55
15382;BME280;7789;51.364;12.358;2023-05-01T00:12:11;100779.47;;;9.27;61.54
15382;BME280;7789;51.364;12.358;2023-05-01T00:17:14;100775.00;;;9.17;61.72
15382;BME280;7789;51.364;12.358;2023-05-01T00:22:17;100773.75;;;9.10;62.10
15382;BME280;7789;51.364;12.358;2023-05-01T00:27:22;100774.31;;;9.03;61.97
15382;BME280;7789;51.364;12.358;2023-05-01T00:32:26;100755.63;;;8.96;62.37
15382;BME280;7789;51.364;12.358;2023-05-01T00:37:30;100755.22;;;8.90;62.66
15382;BME280;7789;51.364;12.358;2023-05-01T00:42:35;100755.44;;;8.87;62.70
15382;BME280;7789;51.364;12.358;2023-05-01T00:47:40;100748.75;;;8.83;63.05
15382;BME280;7789;51.364;12.358;2023-05-01T00:52:44;100742.28;;;8.76;63.31
15382;BME280;7789;51.364;12.358;2023-05-01T00:57:49;100731.66;;;8.66;62.28
15382;BME280;7789;51.364;12.358;2023-05-01T01:02:52;100730.41;;;8.59;62.70
15382;BME280;7789;51.364;12.358;2023-05-01T01:08:03;100723.72;;;8.55;63.96
15382;BME280;7789;51.364;12.358;2023-05-01T01:13:13;100708.63;;;8.48;63.19
15382;BME280;7789;51.364;12.358;2023-05-01T01:18:24;100713.31;;;8.43;64.05
15382;BME280;7789;51.364;12.358;2023-05-01T01:29:39;100703.63;;;8.32;64.46
15382;BME280;7789;51.364;12.358;2023-05-01T01:34:49;100697.91;;;8.27;64.04
15382;BME280;7789;51.364;12.358;2023-05-01T01:40:01;100696.31;;;8.25;64.38
15382;BME280;7789;51.364;12.358;2023-05-01T01:45:11;100695.69;;;8.21;64.15
15382;BME280;7789;51.364;12.358;2023-05-01T01:50:24;100680.53;;;8.14;65.42
15382;BME280;7789;51.364;12.358;2023-05-01T01:55:30;100675.53;;;8.11;65.48
15382;BME280;7789;51.364;12.358;2023-05-01T02:00:36;100673.06;;;8.09;65.14
15382;BME280;7789;51.364;12.358;2023-05-01T02:05:44;100668.03;;;8.06;65.43
15382;BME280;7789;51.364;12.358;2023-05-01T02:10:49;100668.97;;;8.05;64.95
15382;BME280;7789;51.364;12.358;2023-05-01T02:15:54;100658.69;;;8.04;65.15
15382;BME280;7789;51.364;12.358;2023-05-01T02:21:00;100661.50;;;8.01;65.98
15382;BME280;7789;51.364;12.358;2023-05-01T02:26:06;100650.53;;;7.96;65.45
15382;BME280;7789;51.364;12.358;2023-05-01T02:31:14;100645.53;;;7.93;66.76
15382;BME280;7789;51.364;12.358;2023-05-01T02:36:19;100642.50;;;7.86;66.99
15382;BME280;7789;51.364;12.358;2023-05-01T02:41:24;100633.16;;;7.84;66.94
15382;BME280;7789;51.364;12.358;2023-05-01T02:46:29;100630.00;;;7.79;66.51
15382;BME280;7789;51.364;12.358;2023-05-01T02:51:36;100623.25;;;7.76;67.36
15382;BME280;7789;51.364;12.358;2023-05-01T02:56:40;100618.84;;;7.77;66.89
15382;BME280;7789;51.364;12.358;2023-05-01T03:01:44;100613.66;;;7.77;67.55
15382;BME280;7789;51.364;12.358;2023-05-01T03:06:48;100612.41;;;7.70;67.57
15382;BME280;7789;51.364;12.358;2023-05-01T03:11:52;100601.44;;;7.65;67.05
15382;BME280;7789;51.364;12.358;2023-05-01T03:16:55;100589.59;;;7.61;67.31
15382;BME280;7789;51.364;12.358;2023-05-01T03:22:00;100581.06;;;7.59;67.53
15382;BME280;7789;51.364;12.358;2023-05-01T03:27:04;100583.78;;;7.57;67.97
15382;BME280;7789;51.364;12.358;2023-05-01T03:32:08;100584.69;;;7.56;68.00
15382;BME280;7789;51.364;12.358;2023-05-01T03:37:13;100576.28;;;7.53;67.94
15382;BME280;7789;51.364;12.358;2023-05-01T03:42:17;100572.81;;;7.52;68.79
15382;BME280;7789;51.364;12.358;2023-05-01T03:47:20;100559.28;;;7.47;68.85
15382;BME280;7789;51.364;12.358;2023-05-01T03:52:25;100554.81;;;7.49;69.46
15382;BME280;7789;51.364;12.358;2023-05-01T03:57:29;100549.41;;;7.52;68.48
15382;BME280;7789;51.364;12.358;2023-05-01T04:02:32;100549.97;;;7.57;68.57
15382;BME280;7789;51.364;12.358;2023-05-01T04:07:37;100552.03;;;7.65;69.35
15382;BME280;7789;51.364;12.358;2023-05-01T04:12:40;100546.94;;;7.76;68.30
15382;BME280;7789;51.364;12.358;2023-05-01T04:17:44;100546.84;;;7.77;69.08
15382;BME280;7789;51.364;12.358;2023-05-01T04:22:49;100551.72;;;7.82;69.10
15382;BME280;7789;51.364;12.358;2023-05-01T04:27:52;100552.16;;;7.88;68.50
15382;BME280;7789;51.364;12.358;2023-05-01T04:32:55;100560.88;;;8.00;68.13
15382;BME280;7789;51.364;12.358;2023-05-01T04:38:01;100555.47;;;8.15;68.17
15382;BME280;7789;51.364;12.358;2023-05-01T04:43:04;100555.59;;;8.26;67.64
15382;BME280;7789;51.364;12.358;2023-05-01T04:48:07;100539.63;;;8.43;67.68
15382;BME280;7789;51.364;12.358;2023-05-01T04:53:14;100540.09;;;8.61;67.73
15382;BME280;7789;51.364;12.358;2023-05-01T04:58:18;100538.34;;;8.85;66.45
15382;BME280;7789;51.364;12.358;2023-05-01T05:03:22;100542.28;;;9.13;66.16
15382;BME280;7789;51.364;12.358;2023-05-01T05:08:27;100548.56;;;9.45;65.06
15382;BME280;7789;51.364;12.358;2023-05-01T05:13:30;100547.25;;;9.96;64.05
15382;BME280;7789;51.364;12.358;2023-05-01T05:18:33;100538.00;;;11.84;60.72
15382;BME280;7789;51.364;12.358;2023-05-01T05:23:38;100528.06;;;12.47;58.49
15382;BME280;7789;51.364;12.358;2023-05-01T05:28:41;100523.69;;;12.18;59.29
15382;BME280;7789;51.364;12.358;2023-05-01T05:33:45;100531.25;;;13.09;57.12
15382;BME280;7789;51.364;12.358;2023-05-01T05:38:50;100511.53;;;14.35;53.31
15382;BME280;7789;51.364;12.358;2023-05-01T05:43:53;100512.78;;;15.02;48.24
15382;BME280;7789;51.364;12.358;2023-05-01T05:48:57;100514.66;;;15.09;49.75
15382;BME280;7789;51.364;12.358;2023-05-01T05:54:02;100502.44;;;15.26;49.47
15382;BME280;7789;51.364;12.358;2023-05-01T05:59:06;100505.25;;;15.59;49.07
15382;BME280;7789;51.364;12.358;2023-05-01T06:04:09;100502.34;;;15.70;48.32
15382;BME280;7789;51.364;12.358;2023-05-01T06:09:17;100493.19;;;15.82;47.78
15382;BME280;7789;51.364;12.358;2023-05-01T06:14:20;100484.78;;;16.38;47.69
15382;BME280;7789;51.364;12.358;2023-05-01T06:19:24;100486.75;;;16.36;47.38
15382;BME280;7789;51.364;12.358;2023-05-01T06:24:29;100488.47;;;16.61;46.61
15382;BME280;7789;51.364;12.358;2023-05-01T06:29:32;100482.50;;;17.40;46.44
15382;BME280;7789;51.364;12.358;2023-05-01T06:34:35;100483.31;;;18.19;44.71
15382;BME280;7789;51.364;12.358;2023-05-01T06:39:40;100482.69;;;18.85;43.92
15382;BME280;7789;51.364;12.358;2023-05-01T06:44:43;100475.97;;;19.42;42.56
15382;BME280;7789;51.364;12.358;2023-05-01T06:49:46;100463.47;;;20.02;39.24
15382;BME280;7789;51.364;12.358;2023-05-01T06:54:51;100458.66;;;20.91;37.53
15382;BME280;7789;51.364;12.358;2023-05-01T06:59:55;100462.41;;;21.45;37.85
15382;BME280;7789;51.364;12.358;2023-05-01T07:04:59;100465.06;;;22.00;38.06
15382;BME280;7789;51.364;12.358;2023-05-01T07:10:05;100465.41;;;22.65;36.24
15382;BME280;7789;51.364;12.358;2023-05-01T07:15:09;100454.50;;;23.52;35.77
15382;BME280;7789;51.364;12.358;2023-05-01T07:20:13;100449.53;;;23.75;35.55
15382;BME280;7789;51.364;12.358;2023-05-01T07:25:25;100451.56;;;23.79;35.25
15382;BME280;7789;51.364;12.358;2023-05-01T07:30:28;100440.81;;;24.18;34.24
15382;BME280;7789;51.364;12.358;2023-05-01T07:35:34;100447.53;;;24.34;33.88
15382;BME280;7789;51.364;12.358;2023-05-01T07:40:38;100437.00;;;24.45;33.65
15382;BME280;7789;51.364;12.358;2023-05-01T07:45:54;100437.81;;;24.46;33.15
15382;BME280;7789;51.364;12.358;2023-05-01T07:51:00;100427.75;;;23.91;32.94
15382;BME280;7789;51.364;12.358;2023-05-01T07:56:06;100431.47;;;24.40;31.75
15382;BME280;7789;51.364;12.358;2023-05-01T08:01:10;100439.47;;;24.53;31.82
15382;BME280;7789;51.364;12.358;2023-05-01T08:06:17;100422.47;;;24.72;31.61
15382;BME280;7789;51.364;12.358;2023-05-01T08:11:22;100420.13;;;24.45;32.02
15382;BME280;7789;51.364;12.358;2023-05-01T08:16:26;100412.78;;;24.34;32.43
15382;BME280;7789;51.364;12.358;2023-05-01T08:21:29;100408.47;;;24.33;32.03
15382;BME280;7789;51.364;12.358;2023-05-01T08:26:34;100406.94;;;24.56;31.04
15382;BME280;7789;51.364;12.358;2023-05-01T08:31:37;100405.50;;;24.60;31.75
15382;BME280;7789;51.364;12.358;2023-05-01T08:36:43;100404.56;;;24.29;32.09
15382;BME280;7789;51.364;12.358;2023-05-01T08:41:48;100411.25;;;24.13;31.78
15382;BME280;7789;51.364;12.358;2023-05-01T08:46:58;100398.94;;;23.99;30.51
15382;BME280;7789;51.364;12.358;2023-05-01T08:52:09;100405.31;;;24.05;31.49
15382;BME280;7789;51.364;12.358;2023-05-01T08:57:16;100389.31;;;23.92;31.44
15382;BME280;7789;51.364;12.358;2023-05-01T09:02:21;100384.72;;;24.05;32.30
15382;BME280;7789;51.364;12.358;2023-05-01T09:07:26;100380.41;;;24.11;31.15
15382;BME280;7789;51.364;12.358;2023-05-01T09:12:31;100375.44;;;23.51;31.53
15382;BME280;7789;51.364;12.358;2023-05-01T09:17:36;100368.88;;;23.14;33.05
15382;BME280;7789;51.364;12.358;2023-05-01T09:22:39;100353.47;;;22.90;33.61
15382;BME280;7789;51.364;12.358;2023-05-01T09:27:44;100355.94;;;23.05;33.49
15382;BME280;7789;51.364;12.358;2023-05-01T09:33:03;100351.81;;;23.09;33.06
15382;BME280;7789;51.364;12.358;2023-05-01T09:38:08;100346.09;;;22.99;33.33
15382;BME280;7789;51.364;12.358;2023-05-01T09:43:21;100329.88;;;23.00;34.69
15382;BME280;7789;51.364;12.358;2023-05-01T09:48:25;100321.88;;;22.87;33.73
15382;BME280;7789;51.364;12.358;2023-05-01T09:53:39;100320.22;;;22.86;33.27
15382;BME280;7789;51.364;12.358;2023-05-01T09:58:44;100325.97;;;22.64;32.96
15382;BME280;7789;51.364;12.358;2023-05-01T10:03:52;100317.34;;;22.81;34.54
15382;BME280;7789;51.364;12.358;2023-05-01T10:08:57;100307.91;;;23.05;33.03
15382;BME280;7789;51.364;12.358;2023-05-01T10:14:09;100300.13;;;22.90;32.88
15382;BME280;7789;51.364;12.358;2023-05-01T10:19:17;100296.03;;;22.94;33.07
15382;BME280;7789;51.364;12.358;2023-05-01T10:24:21;100292.13;;;22.90;33.94
15382;BME280;7789;51.364;12.358;2023-05-01T10:29:26;100294.81;;;22.71;32.27
15382;BME280;7789;51.364;12.358;2023-05-01T10:34:34;100293.75;;;22.66;33.84
15382;BME280;7789;51.364;12.358;2023-05-01T10:39:39;100279.63;;;22.46;33.42
15382;BME280;7789;51.364;12.358;2023-05-01T10:44:44;100270.41;;;22.48;33.61
15382;BME280;7789;51.364;12.358;2023-05-01T10:50:02;100264.22;;;22.48;32.63
15382;BME280;7789;51.364;12.358;2023-05-01T10:55:33;100243.34;;;22.51;33.80
15382;BME280;7789;51.364;12.358;2023-05-01T11:00:38;100238.59;;;22.47;33.24
15382;BME280;7789;51.364;12.358;2023-05-01T11:06:03;100231.84;;;22.51;33.18
15382;BME280;7789;51.364;12.358;2023-05-01T11:11:46;100228.75;;;22.73;33.39
15382;BME280;7789;51.364;12.358;2023-05-01T11:16:53;100223.22;;;22.74;33.57
15382;BME280;7789;51.364;12.358;2023-05-01T11:21:57;100208.22;;;22.93;34.30
15382;BME280;7789;51.364;12.358;2023-05-01T11:27:02;100207.84;;;22.83;34.45
15382;BME280;7789;51.364;12.358;2023-05-01T11:32:08;100197.38;;;22.68;32.78
15382;BME280;7789;51.364;12.358;2023-05-01T11:37:11;100193.50;;;22.32;32.85
15382;BME280;7789;51.364;12.358;2023-05-01T11:42:15;100179.13;;;22.27;33.16
15382;BME280;7789;51.364;12.358;2023-05-01T11:47:31;100167.66;;;22.33;34.14
15382;BME280;7789;51.364;12.358;2023-05-01T11:52:42;100172.38;;;22.31;33.56
15382;BME280;7789;51.364;12.358;2023-05-01T11:57:47;100165.81;;;22.27;33.45
15382;BME280;7789;51.364;12.358;2023-05-01T12:02:59;100159.25;;;21.97;34.14
15382;BME280;7789;51.364;12.358;2023-05-01T12:08:08;100159.22;;;21.84;34.63
15382;BME280;7789;51.364;12.358;2023-05-01T12:13:14;100151.75;;;21.53;35.38
15382;BME280;7789;51.364;12.358;2023-05-01T12:18:20;100148.28;;;21.59;35.65
15382;BME280;7789;51.364;12.358;2023-05-01T12:23:30;100144.03;;;21.65;35.34
15382;BME280;7789;51.364;12.358;2023-05-01T12:28:37;100124.41;;;21.79;35.77
15382;BME280;7789;51.364;12.358;2023-05-01T12:33:51;100120.31;;;21.89;36.01
15382;BME280;7789;51.364;12.358;2023-05-01T12:38:58;100123.81;;;21.90;35.07
15382;BME280;7789;51.364;12.358;2023-05-01T12:44:05;100122.13;;;21.63;35.51
15382;BME280;7789;51.364;12.358;2023-05-01T12:49:19;100116.97;;;21.61;35.69
15382;BME280;7789;51.364;12.358;2023-05-01T12:54:27;100102.47;;;21.64;35.25
15382;BME280;7789;51.364;12.358;2023-05-01T12:59:31;100100.78;;;21.56;34.81
15382;BME280;7789;51.364;12.358;2023-05-01T13:04:36;100091.44;;;21.80;35.92
15382;BME280;7789;51.364;12.358;2023-05-01T13:09:50;100098.22;;;21.89;34.38
15382;BME280;7789;51.364;12.358;2023-05-01T13:14:54;100094.31;;;21.91;34.41
15382;BME280;7789;51.364;12.358;2023-05-01T13:20:00;100084.25;;;22.00;34.24
15382;BME280;7789;51.364;12.358;2023-05-01T13:25:13;100077.72;;;22.09;34.24
15382;BME280;7789;51.364;12.358;2023-05-01T13:30:19;100086.31;;;22.11;34.51
15382;BME280;7789;51.364;12.358;2023-05-01T13:35:26;100082.63;;;22.18;33.54
15382;BME280;7789;51.364;12.358;2023-05-01T13:40:33;100077.50;;;22.17;34.27
15382;BME280;7789;51.364;12.358;2023-05-01T13:45:36;100078.75;;;22.14;33.91
15382;BME280;7789;51.364;12.358;2023-05-01T13:50:40;100064.59;;;22.07;34.50
15382;BME280;7789;51.364;12.358;2023-05-01T13:55:44;100064.78;;;22.25;35.57
15382;BME280;7789;51.364;12.358;2023-05-01T14:00:48;100067.84;;;22.29;35.53
15382;BME280;7789;51.364;12.358;2023-05-01T14:05:52;100058.84;;;22.30;34.03
15382;BME280;7789;51.364;12.358;2023-05-01T14:10:57;100057.81;;;22.18;34.22
15382;BME280;7789;51.364;12.358;2023-05-01T14:16:00;100057.22;;;22.22;34.38
15382;BME280;7789;51.364;12.358;2023-05-01T14:21:05;100044.94;;;22.02;33.52
15382;BME280;7789;51.364;12.358;2023-05-01T14:26:09;100052.72;;;22.10;34.12
15382;BME280;7789;51.364;12.358;2023-05-01T14:31:15;100045.34;;;22.18;33.16
15382;BME280;7789;51.364;12.358;2023-05-01T14:36:21;100045.75;;;22.09;33.77
15382;BME280;7789;51.364;12.358;2023-05-01T14:41:25;100037.78;;;22.09;33.66
15382;BME280;7789;51.364;12.358;2023-05-01T14:46:30;100052.91;;;22.08;33.59
15382;BME280;7789;51.364;12.358;2023-05-01T14:51:35;100041.84;;;22.11;33.90
15382;BME280;7789;51.364;12.358;2023-05-01T14:56:41;100029.53;;;22.17;36.72
15382;BME280;7789;51.364;12.358;2023-05-01T15:01:45;100044.50;;;22.18;35.33
15382;BME280;7789;51.364;12.358;2023-05-01T15:06:50;100031.00;;;22.19;34.02
15382;BME280;7789;51.364;12.358;2023-05-01T15:11:53;100024.03;;;22.05;33.72
15382;BME280;7789;51.364;12.358;2023-05-01T15:16:56;100030.41;;;21.91;33.79
15382;BME280;7789;51.364;12.358;2023-05-01T15:22:01;100024.28;;;21.84;34.08
15382;BME280;7789;51.364;12.358;2023-05-01T15:27:05;100018.94;;;21.84;34.56
15382;BME280;7789;51.364;12.358;2023-05-01T15:32:08;100025.06;;;21.78;36.57
15382;BME280;7789;51.364;12.358;2023-05-01T15:37:15;100032.03;;;21.60;38.91
15382;BME280;7789;51.364;12.358;2023-05-01T15:42:18;100033.44;;;21.43;39.27
15382;BME280;7789;51.364;12.358;2023-05-01T15:47:21;100017.25;;;21.25;40.23
15382;BME280;7789;51.364;12.358;2023-05-01T15:52:27;100025.63;;;21.15;40.57
15382;BME280;7789;51.364;12.358;2023-05-01T15:57:30;100017.59;;;21.02;40.88
15382;BME280;7789;51.364;12.358;2023-05-01T16:02:34;100017.81;;;20.94;41.78
15382;BME280;7789;51.364;12.358;2023-05-01T16:07:39;100012.03;;;20.84;42.11
15382;BME280;7789;51.364;12.358;2023-05-01T16:12:42;100024.84;;;20.74;41.29
15382;BME280;7789;51.364;12.358;2023-05-01T16:17:49;100021.78;;;20.71;41.03
15382;BME280;7789;51.364;12.358;2023-05-01T16:22:57;100024.19;;;20.66;41.77
15382;BME280;7789;51.364;12.358;2023-05-01T16:28:04;100021.28;;;20.55;40.93
15382;BME280;7789;51.364;12.358;2023-05-01T16:33:11;100021.25;;;20.48;41.18
15382;BME280;7789;51.364;12.358;2023-05-01T16:38:21;100021.19;;;20.35;40.98
15382;BME280;7789;51.364;12.358;2023-05-01T16:43:24;100012.75;;;20.25;41.88
15382;BME280;7789;51.364;12.358;2023-05-01T16:48:27;100012.28;;;20.15;41.74
15382;BME280;7789;51.364;12.358;2023-05-01T16:53:33;100014.91;;;20.09;42.75
15382;BME280;7789;51.364;12.358;2023-05-01T16:58:36;100015.19;;;19.99;44.34
15382;BME280;7789;51.364;12.358;2023-05-01T17:03:40;100016.94;;;19.86;44.47
15382;BME280;7789;51.364;12.358;2023-05-01T17:08:45;100009.53;;;19.75;44.53
15382;BME280;7789;51.364;12.358;2023-05-01T17:13:49;100015.97;;;19.66;44.38
15382;BME280;7789;51.364;12.358;2023-05-01T17:18:56;100013.72;;;19.63;45.71
15382;BME280;7789;51.364;12.358;2023-05-01T17:24:02;100027.31;;;19.53;46.02
15382;BME280;7789;51.364;12.358;2023-05-01T17:29:06;100033.34;;;19.47;46.11
15382;BME280;7789;51.364;12.358;2023-05-01T17:34:09;100026.16;;;19.41;45.42
15382;BME280;7789;51.364;12.358;2023-05-01T17:39:15;100027.56;;;19.37;45.59
15382;BME280;7789;51.364;12.358;2023-05-01T17:44:19;100030.97;;;19.31;45.97
15382;BME280;7789;51.364;12.358;2023-05-01T17:49:23;100036.22;;;19.25;47.12
15382;BME280;7789;51.364;12.358;2023-05-01T17:54:27;100042.59;;;19.16;47.90
15382;BME280;7789;51.364;12.358;2023-05-01T17:59:31;100044.16;;;19.10;48.79
15382;BME280;7789;51.364;12.358;2023-05-01T18:04:34;100052.25;;;19.02;49.30
15382;BME280;7789;51.364;12.358;2023-05-01T18:09:40;100056.00;;;18.93;50.08
15382;BME280;7789;51.364;12.358;2023-05-01T18:14:43;100053.84;;;18.82;50.77
15382;BME280;7789;51.364;12.358;2023-05-01T18:19:48;100067.66;;;18.78;50.76
15382;BME280;7789;51.364;12.358;2023-05-01T18:24:55;100071.38;;;18.69;53.25
15382;BME280;7789;51.364;12.358;2023-05-01T18:29:58;100074.06;;;18.55;57.02
15382;BME280;7789;51.364;12.358;2023-05-01T18:35:07;100079.00;;;18.43;60.97
15382;BME280;7789;51.364;12.358;2023-05-01T18:40:16;100069.69;;;18.33;58.17
15382;BME280;7789;51.364;12.358;2023-05-01T18:45:19;100063.16;;;18.21;59.56
15382;BME280;7789;51.364;12.358;2023-05-01T18:50:27;100065.22;;;18.11;54.44
15382;BME280;7789;51.364;12.358;2023-05-01T18:55:34;100074.38;;;18.08;53.68
15382;BME280;7789;51.364;12.358;2023-05-01T19:00:38;100078.19;;;18.06;53.74
15382;BME280;7789;51.364;12.358;2023-05-01T19:05:41;100083.09;;;17.94;53.02
15382;BME280;7789;51.364;12.358;2023-05-01T19:10:46;100093.56;;;17.88;53.97
15382;BME280;7789;51.364;12.358;2023-05-01T19:15:49;100090.00;;;17.81;54.30
15382;BME280;7789;51.364;12.358;2023-05-01T19:20:54;100091.91;;;17.72;54.12
15382;BME280;7789;51.364;12.358;2023-05-01T19:25:59;100096.22;;;17.65;54.35
15382;BME280;7789;51.364;12.358;2023-05-01T19:31:04;100100.13;;;17.55;55.10
15382;BME280;7789;51.364;12.358;2023-05-01T19:36:08;100099.34;;;17.46;55.07
15382;BME280;7789;51.364;12.358;2023-05-01T19:41:13;100099.06;;;17.41;55.39
15382;BME280;7789;51.364;12.358;2023-05-01T19:46:17;100097.94;;;17.36;55.85
15382;BME280;7789;51.364;12.358;2023-05-01T19:51:20;100096.78;;;17.30;56.93
15382;BME280;7789;51.364;12.358;2023-05-01T19:56:25;100096.84;;;17.22;56.85
15382;BME280;7789;51.364;12.358;2023-05-01T20:01:28;100099.34;;;17.16;57.82
15382;BME280;7789;51.364;12.358;2023-05-01T20:06:32;100107.94;;;17.10;57.97
15382;BME280;7789;51.364;12.358;2023-05-01T20:11:36;100102.38;;;17.05;58.81
15382;BME280;7789;51.364;12.358;2023-05-01T20:16:40;100093.50;;;16.98;58.74
15382;BME280;7789;51.364;12.358;2023-05-01T20:21:43;100094.19;;;16.92;57.92
15382;BME280;7789;51.364;12.358;2023-05-01T20:26:48;100096.53;;;16.87;59.02
15382;BME280;7789;51.364;12.358;2023-05-01T20:31:54;100106.59;;;16.83;59.37
15382;BME280;7789;51.364;12.358;2023-05-01T20:36:57;100122.31;;;16.77;59.66
15382;BME280;7789;51.364;12.358;2023-05-01T20:42:02;100129.09;;;16.72;59.22
15382;BME280;7789;51.364;12.358;2023-05-01T20:47:06;100132.41;;;16.66;59.48
15382;BME280;7789;51.364;12.358;2023-05-01T20:52:10;100129.81;;;16.58;60.31
15382;BME280;7789;51.364;12.358;2023-05-01T20:57:15;100130.66;;;16.50;60.94
15382;BME280;7789;51.364;12.358;2023-05-01T21:02:19;100130.16;;;16.47;61.16
15382;BME280;7789;51.364;12.358;2023-05-01T21:07:22;100139.75;;;16.40;61.73
15382;BME280;7789;51.364;12.358;2023-05-01T21:12:28;100136.91;;;16.33;62.87
15382;BME280;7789;51.364;12.358;2023-05-01T21:17:33;100131.13;;;16.30;63.64
15382;BME280;7789;51.364;12.358;2023-05-01T21:22:38;100138.09;;;16.23;64.22
15382;BME280;7789;51.364;12.358;2023-05-01T21:27:43;100144.34;;;16.14;65.11
15382;BME280;7789;51.364;12.358;2023-05-01T21:32:47;100147.66;;;16.08;65.95
15382;BME280;7789;51.364;12.358;2023-05-01T21:37:50;100148.81;;;16.05;66.83
15382;BME280;7789;51.364;12.358;2023-05-01T21:42:55;100140.56;;;16.00;68.22
15382;BME280;7789;51.364;12.358;2023-05-01T21:47:59;100151.28;;;15.99;68.28
15382;BME280;7789;51.364;12.358;2023-05-01T21:53:04;100153.25;;;15.97;69.65
15382;BME280;7789;51.364;12.358;2023-05-01T21:58:11;100150.63;;;15.89;70.62
15382;BME280;7789;51.364;12.358;2023-05-01T22:03:15;100145.69;;;15.86;70.81
15382;BME280;7789;51.364;12.358;2023-05-01T22:08:19;100150.47;;;15.82;71.64
15382;BME280;7789;51.364;12.358;2023-05-01T22:13:25;100154.56;;;15.77;72.13
15382;BME280;7789;51.364;12.358;2023-05-01T22:18:34;100162.81;;;15.74;72.33
15382;BME280;7789;51.364;12.358;2023-05-01T22:23:37;100158.84;;;15.70;73.06
15382;BME280;7789;51.364;12.358;2023-05-01T22:28:42;100155.06;;;15.64;73.67
15382;BME280;7789;51.364;12.358;2023-05-01T22:33:45;100159.81;;;15.61;73.88
15382;BME280;7789;51.364;12.358;2023-05-01T22:38:49;100161.13;;;15.57;74.09
15382;BME280;7789;51.364;12.358;2023-05-01T22:43:54;100159.81;;;15.53;75.21
15382;BME280;7789;51.364;12.358;2023-05-01T22:48:57;100163.75;;;15.49;75.16
15382;BME280;7789;51.364;12.358;2023-05-01T22:54:03;100167.69;;;15.45;75.46
15382;BME280;7789;51.364;12.358;2023-05-01T22:59:08;100165.38;;;15.42;76.65
15382;BME280;7789;51.364;12.358;2023-05-01T23:04:12;100176.41;;;15.37;76.62
15382;BME280;7789;51.364;12.358;2023-05-01T23:09:16;100180.34;;;15.33;76.75
15382;BME280;7789;51.364;12.358;2023-05-01T23:14:21;100171.78;;;15.31;77.13
15382;BME280;7789;51.364;12.358;2023-05-01T23:19:26;100175.03;;;15.25;77.18
15382;BME280;7789;51.364;12.358;2023-05-01T23:24:40;100177.81;;;15.24;78.29
15382;BME280;7789;51.364;12.358;2023-05-01T23:29:53;100176.50;;;15.20;78.26
15382;BME280;7789;51.364;12.358;2023-05-01T23:35:03;100175.16;;;15.16;78.25
15382;BME280;7789;51.364;12.358;2023-05-01T23:40:15;100171.19;;;15.12;77.14
15382;BME280;7789;51.364;12.358;2023-05-01T23:45:20;100174.97;;;15.09;77.80
15382;BME280;7789;51.364;12.358;2023-05-01T23:50:24;100172.94;;;15.03;78.43
15382;BME280;7789;51.364;12.358;2023-05-01T23:55:29;100170.31;;;14.95;78.54
